sensor_id;sensor_type;location;lat;lon;timestamp;pressure;altitude;pressure_sealevel;temperature;humidity
21644;BME280;10983;51.982;9.226;2023-05-03T00:01:44;101026.19;;;2.84;100.00
21644;BME280;10983;51.982;9.226;2023-05-03T00:04:11;101029.72;;;2.67;100.00
21644;BME280;10983;51.982;9.226;2023-05-03T00:06:41;101027.38;;;2.56;100.00
21644;BME280;10983;51.982;9.226;2023-05-03T00:09:09;101030.59;;;2.50;100.00
21644;BME280;10983;51.982;9.226;2023-05-03T00:11:37;101035.16;;;2.40;100.00
21644;BME280;10983;51.982;9.226;2023-05-03T00:14:05;101038.03;;;2.55;100.00
21644;BME280;10983;51.982;9.226;2023-05-03T00:16:32;101037.94;;;2.39;100.00
21644;BME280;10983;51.982;9.226;2023-05-03T00:19:01;101046.06;;;2.28;100.00
21644;BME280;10983;51.982;9.226;2023-05-03T00:21:29;101048.25;;;2.15;100.00
21644;BME280;10983;51.982;9.226;2023-05-03T00:23:57;101050.34;;;2.12;100.00
21644;BME280;10983;51.982;9.226;2023-05-03T00:26:25;101050.53;;;1.93;100.00
21644;BME280;10983;51.982;9.226;2023-05-03T00:28:53;101054.19;;;2.00;100.00
21644;BME280;10983;51.982;9.226;2023-05-03T00:31:21;101062.13;;;2.08;100.00
21644;BME280;10983;51.982;9.226;2023-05-03T00:33:48;101058.44;;;2.18;100.00
21644;BME280;10983;51.982;9.226;2023-05-03T00:36:17;101055.84;;;2.01;100.00
21644;BME280;10983;51.982;9.226;2023-05-03T00:38:44;101056.63;;;1.93;100.00
21644;BME280;10983;51.982;9.226;2023-05-03T00:41:12;101054.81;;;1.94;100.00
21644;BME280;10983;51.982;9.226;2023-05-03T00:43:39;101056.75;;;1.92;100.00
21644;BME280;10983;51.982;9.226;2023-05-03T00:46:08;101065.63;;;1.91;100.00
21644;BME280;10983;51.982;9.226;2023-05-03T00:48:43;101071.91;;;1.80;100.00
21644;BME280;10983;51.982;9.226;2023-05-03T00:51:12;101072.72;;;1.81;100.00
21644;BME280;10983;51.982;9.226;2023-05-03T00:53:42;101076.63;;;1.77;100.00
21644;BME280;10983;51.982;9.226;2023-05-03T00:56:09;101066.13;;;1.60;100.00
21644;BME280;10983;51.982;9.226;2023-05-03T00:58:37;101073.84;;;1.61;100.00
21644;BME280;10983;51.982;9.226;2023-05-03T01:01:06;101077.59;;;1.41;100.00
21644;BME280;10983;51.982;9.226;2023-05-03T01:03:34;101079.06;;;1.44;100.00
21644;BME280;10983;51.982;9.226;2023-05-03T01:06:08;101079.97;;;1.35;100.00
21644;BME280;10983;51.982;9.226;2023-05-03T01:08:43;101079.97;;;1.35;100.00
21644;BME280;10983;51.982;9.226;2023-05-03T01:11:17;101082.88;;;1.32;100.00
21644;BME280;10983;51.982;9.226;2023-05-03T01:13:51;101084.28;;;1.26;100.00
21644;BME280;10983;51.982;9.226;2023-05-03T01:18:53;101099.84;;;1.55;100.00
21644;BME280;10983;51.982;9.226;2023-05-03T01:21:23;101107.16;;;1.51;100.00
21644;BME280;10983;51.982;9.226;2023-05-03T01:23:59;101116.59;;;1.44;100.00
21644;BME280;10983;51.982;9.226;2023-05-03T01:26:30;101121.13;;;1.42;100.00
21644;BME280;10983;51.982;9.226;2023-05-03T01:28:58;101127.78;;;1.37;100.00
21644;BME280;10983;51.982;9.226;2023-05-03T01:31:29;101123.16;;;1.31;100.00
21644;BME280;10983;51.982;9.226;2023-05-03T01:34:13;101125.16;;;1.10;100.00
21644;BME280;10983;51.982;9.226;2023-05-03T01:36:44;101125.41;;;0.90;100.00
21644;BME280;10983;51.982;9.226;2023-05-03T01:39:17;101129.50;;;1.02;100.00
21644;BME280;10983;51.982;9.226;2023-05-03T01:41:49;101130.63;;;0.90;100.00
21644;BME280;10983;51.982;9.226;2023-05-03T01:44:17;101129.13;;;0.87;100.00
21644;BME280;10983;51.982;9.226;2023-05-03T01:46:45;101136.88;;;0.79;100.00
21644;BME280;10983;51.982;9.226;2023-05-03T01:49:13;101141.97;;;0.71;100.00
21644;BME280;10983;51.982;9.226;2023-05-03T01:51:41;101135.88;;;0.90;100.00
21644;BME280;10983;51.982;9.226;2023-05-03T01:54:08;101140.66;;;0.94;100.00
21644;BME280;10983;51.982;9.226;2023-05-03T01:56:36;101138.34;;;0.91;100.00
21644;BME280;10983;51.982;9.226;2023-05-03T01:59:05;101128.97;;;0.89;100.00
21644;BME280;10983;51.982;9.226;2023-05-03T02:01:32;101134.63;;;0.94;100.00
21644;BME280;10983;51.982;9.226;2023-05-03T02:04:00;101133.91;;;0.92;100.00
21644;BME280;10983;51.982;9.226;2023-05-03T02:06:28;101138.44;;;0.99;100.00
21644;BME280;10983;51.982;9.226;2023-05-03T02:08:56;101139.31;;;0.90;100.00
21644;BME280;10983;51.982;9.226;2023-05-03T02:11:24;101134.00;;;0.73;100.00
21644;BME280;10983;51.982;9.226;2023-05-03T02:13:51;101130.88;;;0.60;100.00
21644;BME280;10983;51.982;9.226;2023-05-03T02:16:20;101124.41;;;0.45;100.00
21644;BME280;10983;51.982;9.226;2023-05-03T02:18:48;101135.16;;;0.42;100.00
21644;BME280;10983;51.982;9.226;2023-05-03T02:21:17;101136.94;;;0.51;100.00
21644;BME280;10983;51.982;9.226;2023-05-03T02:23:44;101134.72;;;0.65;100.00
21644;BME280;10983;51.982;9.226;2023-05-03T02:26:12;101144.47;;;0.63;100.00
21644;BME280;10983;51.982;9.226;2023-05-03T02:28:39;101148.59;;;0.75;100.00
21644;BME280;10983;51.982;9.226;2023-05-03T02:31:06;101155.75;;;0.83;100.00
21644;BME280;10983;51.982;9.226;2023-05-03T02:33:35;101163.03;;;0.79;100.00
21644;BME280;10983;51.982;9.226;2023-05-03T02:36:03;101165.94;;;0.76;100.00
21644;BME280;10983;51.982;9.226;2023-05-03T02:38:31;101165.28;;;0.65;100.00
21644;BME280;10983;51.982;9.226;2023-05-03T02:40:58;101171.50;;;0.45;100.00
21644;BME280;10983;51.982;9.226;2023-05-03T02:43:26;101167.94;;;0.37;100.00
21644;BME280;10983;51.982;9.226;2023-05-03T02:45:53;101169.19;;;0.14;100.00
21644;BME280;10983;51.982;9.226;2023-05-03T02:48:20;101178.41;;;0.27;100.00
21644;BME280;10983;51.982;9.226;2023-05-03T02:50:50;101174.00;;;0.18;100.00
21644;BME280;10983;51.982;9.226;2023-05-03T02:53:17;101178.69;;;0.05;100.00
21644;BME280;10983;51.982;9.226;2023-05-03T02:55:45;101172.63;;;-0.14;100.00
21644;BME280;10983;51.982;9.226;2023-05-03T02:58:12;101181.69;;;-0.08;100.00
21644;BME280;10983;51.982;9.226;2023-05-03T03:00:40;101185.00;;;-0.16;100.00
21644;BME280;10983;51.982;9.226;2023-05-03T03:03:07;101190.63;;;-0.02;100.00
21644;BME280;10983;51.982;9.226;2023-05-03T03:05:35;101190.91;;;0.05;100.00
21644;BME280;10983;51.982;9.226;2023-05-03T03:08:04;101190.09;;;0.14;100.00
21644;BME280;10983;51.982;9.226;2023-05-03T03:10:32;101194.63;;;0.21;100.00
21644;BME280;10983;51.982;9.226;2023-05-03T03:12:59;101201.94;;;0.37;100.00
21644;BME280;10983;51.982;9.226;2023-05-03T03:15:28;101206.34;;;0.36;100.00
21644;BME280;10983;51.982;9.226;2023-05-03T03:17:55;101207.03;;;0.38;100.00
21644;BME280;10983;51.982;9.226;2023-05-03T03:20:23;101207.97;;;0.37;100.00
21644;BME280;10983;51.982;9.226;2023-05-03T03:22:51;101213.34;;;0.26;100.00
21644;BME280;10983;51.982;9.226;2023-05-03T03:25:20;101206.88;;;0.11;100.00
21644;BME280;10983;51.982;9.226;2023-05-03T03:27:47;101205.94;;;0.12;100.00
21644;BME280;10983;51.982;9.226;2023-05-03T03:30:15;101219.16;;;0.30;100.00
21644;BME280;10983;51.982;9.226;2023-05-03T03:32:42;101221.91;;;0.19;100.00
21644;BME280;10983;51.982;9.226;2023-05-03T03:35:10;101219.38;;;-0.02;100.00
21644;BME280;10983;51.982;9.226;2023-05-03T03:37:38;101213.59;;;-0.14;100.00
21644;BME280;10983;51.982;9.226;2023-05-03T03:40:06;101219.94;;;-0.17;100.00
21644;BME280;10983;51.982;9.226;2023-05-03T03:42:37;101221.44;;;-0.24;100.00
21644;BME280;10983;51.982;9.226;2023-05-03T03:45:05;101219.91;;;-0.26;100.00
21644;BME280;10983;51.982;9.226;2023-05-03T03:47:33;101217.69;;;-0.31;100.00
21644;BME280;10983;51.982;9.226;2023-05-03T03:50:00;101210.38;;;-0.37;100.00
21644;BME280;10983;51.982;9.226;2023-05-03T03:52:28;101217.72;;;-0.21;100.00
21644;BME280;10983;51.982;9.226;2023-05-03T03:54:56;101220.59;;;-0.24;100.00
21644;BME280;10983;51.982;9.226;2023-05-03T03:57:23;101222.97;;;-0.12;100.00
21644;BME280;10983;51.982;9.226;2023-05-03T03:59:56;101223.13;;;-0.04;100.00
21644;BME280;10983;51.982;9.226;2023-05-03T04:02:24;101218.56;;;-0.02;100.00
21644;BME280;10983;51.982;9.226;2023-05-03T04:04:52;101224.50;;;0.00;100.00
21644;BME280;10983;51.982;9.226;2023-05-03T04:07:19;101250.06;;;-0.03;100.00
21644;BME280;10983;51.982;9.226;2023-05-03T04:09:47;101251.31;;;0.02;100.00
21644;BME280;10983;51.982;9.226;2023-05-03T04:12:14;101269.63;;;0.11;100.00
21644;BME280;10983;51.982;9.226;2023-05-03T04:14:42;101281.91;;;0.39;100.00
21644;BME280;10983;51.982;9.226;2023-05-03T04:17:10;101283.97;;;0.45;100.00
21644;BME280;10983;51.982;9.226;2023-05-03T04:19:38;101287.16;;;0.49;100.00
21644;BME280;10983;51.982;9.226;2023-05-03T04:22:05;101287.28;;;0.56;100.00
21644;BME280;10983;51.982;9.226;2023-05-03T04:24:33;101286.47;;;0.56;100.00
21644;BME280;10983;51.982;9.226;2023-05-03T04:27:01;101284.69;;;0.56;100.00
21644;BME280;10983;51.982;9.226;2023-05-03T04:29:29;101299.13;;;0.60;100.00
21644;BME280;10983;51.982;9.226;2023-05-03T04:31:57;101301.34;;;0.55;100.00
21644;BME280;10983;51.982;9.226;2023-05-03T04:34:27;101309.31;;;0.82;100.00
21644;BME280;10983;51.982;9.226;2023-05-03T04:36:55;101314.28;;;0.85;100.00
21644;BME280;10983;51.982;9.226;2023-05-03T04:39:23;101317.44;;;0.89;100.00
21644;BME280;10983;51.982;9.226;2023-05-03T04:41:50;101324.06;;;0.93;100.00
21644;BME280;10983;51.982;9.226;2023-05-03T04:44:18;101326.38;;;1.05;100.00
21644;BME280;10983;51.982;9.226;2023-05-03T04:46:46;101330.09;;;1.21;100.00
21644;BME280;10983;51.982;9.226;2023-05-03T04:49:16;101330.59;;;1.34;100.00
21644;BME280;10983;51.982;9.226;2023-05-03T04:51:45;101339.97;;;1.46;100.00
21644;BME280;10983;51.982;9.226;2023-05-03T04:54:13;101339.94;;;1.56;100.00
21644;BME280;10983;51.982;9.226;2023-05-03T04:56:41;101336.75;;;1.62;100.00
21644;BME280;10983;51.982;9.226;2023-05-03T04:59:08;101333.13;;;1.72;100.00
21644;BME280;10983;51.982;9.226;2023-05-03T05:01:36;101349.50;;;1.83;100.00
21644;BME280;10983;51.982;9.226;2023-05-03T05:04:03;101348.50;;;1.94;100.00
21644;BME280;10983;51.982;9.226;2023-05-03T05:06:31;101342.28;;;1.95;100.00
21644;BME280;10983;51.982;9.226;2023-05-03T05:09:00;101345.47;;;1.89;100.00
21644;BME280;10983;51.982;9.226;2023-05-03T05:11:28;101346.66;;;2.04;100.00
21644;BME280;10983;51.982;9.226;2023-05-03T05:13:55;101349.28;;;2.30;100.00
21644;BME280;10983;51.982;9.226;2023-05-03T05:16:23;101352.22;;;2.45;100.00
21644;BME280;10983;51.982;9.226;2023-05-03T05:18:50;101357.50;;;2.62;100.00
21644;BME280;10983;51.982;9.226;2023-05-03T05:21:18;101353.59;;;2.66;100.00
21644;BME280;10983;51.982;9.226;2023-05-03T05:23:45;101349.09;;;2.59;100.00
21644;BME280;10983;51.982;9.226;2023-05-03T05:26:14;101360.81;;;2.81;100.00
21644;BME280;10983;51.982;9.226;2023-05-03T05:28:41;101365.19;;;3.08;100.00
21644;BME280;10983;51.982;9.226;2023-05-03T05:31:10;101364.94;;;3.19;100.00
21644;BME280;10983;51.982;9.226;2023-05-03T05:33:40;101367.78;;;3.25;100.00
21644;BME280;10983;51.982;9.226;2023-05-03T05:36:07;101374.94;;;3.40;100.00
21644;BME280;10983;51.982;9.226;2023-05-03T05:38:35;101375.81;;;3.49;100.00
21644;BME280;10983;51.982;9.226;2023-05-03T05:41:02;101378.22;;;3.60;100.00
21644;BME280;10983;51.982;9.226;2023-05-03T05:43:33;101388.88;;;3.84;100.00
21644;BME280;10983;51.982;9.226;2023-05-03T05:46:00;101389.00;;;4.07;100.00
21644;BME280;10983;51.982;9.226;2023-05-03T05:48:28;101386.50;;;4.31;100.00
21644;BME280;10983;51.982;9.226;2023-05-03T05:50:56;101378.97;;;4.44;100.00
21644;BME280;10983;51.982;9.226;2023-05-03T05:53:23;101387.78;;;4.68;100.00
21644;BME280;10983;51.982;9.226;2023-05-03T05:55:51;101378.94;;;4.85;100.00
21644;BME280;10983;51.982;9.226;2023-05-03T05:58:18;101377.94;;;5.02;100.00
21644;BME280;10983;51.982;9.226;2023-05-03T06:00:47;101374.34;;;5.11;100.00
21644;BME280;10983;51.982;9.226;2023-05-03T06:03:15;101368.72;;;4.98;100.00
21644;BME280;10983;51.982;9.226;2023-05-03T06:05:42;101352.59;;;5.01;100.00
21644;BME280;10983;51.982;9.226;2023-05-03T06:08:10;101352.75;;;5.23;100.00
21644;BME280;10983;51.982;9.226;2023-05-03T06:10:38;101342.72;;;5.19;100.00
21644;BME280;10983;51.982;9.226;2023-05-03T06:13:05;101338.75;;;5.23;100.00
21644;BME280;10983;51.982;9.226;2023-05-03T06:15:33;101320.28;;;5.23;100.00
21644;BME280;10983;51.982;9.226;2023-05-03T06:18:01;101290.97;;;5.02;100.00
21644;BME280;10983;51.982;9.226;2023-05-03T06:20:29;101284.06;;;5.25;100.00
21644;BME280;10983;51.982;9.226;2023-05-03T06:22:57;101274.56;;;5.54;100.00
21644;BME280;10983;51.982;9.226;2023-05-03T06:25:24;101257.38;;;5.74;100.00
21644;BME280;10983;51.982;9.226;2023-05-03T06:27:52;101227.84;;;5.86;100.00
21644;BME280;10983;51.982;9.226;2023-05-03T06:30:19;101201.38;;;6.02;100.00
21644;BME280;10983;51.982;9.226;2023-05-03T06:32:48;101180.38;;;6.01;100.00
21644;BME280;10983;51.982;9.226;2023-05-03T06:35:17;101164.06;;;6.27;100.00
21644;BME280;10983;51.982;9.226;2023-05-03T06:37:48;101146.22;;;6.66;100.00
21644;BME280;10983;51.982;9.226;2023-05-03T06:40:16;101126.66;;;6.89;100.00
21644;BME280;10983;51.982;9.226;2023-05-03T06:42:43;101104.47;;;7.33;100.00
21644;BME280;10983;51.982;9.226;2023-05-03T06:45:11;101092.22;;;7.61;100.00
21644;BME280;10983;51.982;9.226;2023-05-03T06:47:39;101098.06;;;7.78;100.00
21644;BME280;10983;51.982;9.226;2023-05-03T06:50:09;101113.09;;;8.12;100.00
21644;BME280;10983;51.982;9.226;2023-05-03T06:52:37;101145.59;;;8.62;100.00
21644;BME280;10983;51.982;9.226;2023-05-03T06:55:06;101173.44;;;8.73;100.00
21644;BME280;10983;51.982;9.226;2023-05-03T06:57:33;101216.19;;;9.11;100.00
21644;BME280;10983;51.982;9.226;2023-05-03T07:00:01;101268.31;;;9.52;100.00
21644;BME280;10983;51.982;9.226;2023-05-03T07:02:32;101320.66;;;9.58;100.00
21644;BME280;10983;51.982;9.226;2023-05-03T07:05:02;101366.38;;;10.49;100.00
21644;BME280;10983;51.982;9.226;2023-05-03T07:07:29;101409.16;;;11.19;100.00
21644;BME280;10983;51.982;9.226;2023-05-03T07:09:58;101459.47;;;12.06;100.00
21644;BME280;10983;51.982;9.226;2023-05-03T07:12:25;101499.41;;;12.64;100.00
21644;BME280;10983;51.982;9.226;2023-05-03T07:14:54;101522.38;;;13.35;100.00
21644;BME280;10983;51.982;9.226;2023-05-03T07:17:22;101579.06;;;13.87;100.00
21644;BME280;10983;51.982;9.226;2023-05-03T07:19:50;101606.44;;;14.19;100.00
21644;BME280;10983;51.982;9.226;2023-05-03T07:22:17;101625.59;;;14.47;100.00
21644;BME280;10983;51.982;9.226;2023-05-03T07:24:46;101641.16;;;14.81;100.00
21644;BME280;10983;51.982;9.226;2023-05-03T07:27:15;101650.50;;;15.38;100.00
21644;BME280;10983;51.982;9.226;2023-05-03T07:29:42;101663.59;;;15.82;100.00
21644;BME280;10983;51.982;9.226;2023-05-03T07:32:10;101672.13;;;15.90;100.00
21644;BME280;10983;51.982;9.226;2023-05-03T07:34:38;101676.50;;;15.73;100.00
21644;BME280;10983;51.982;9.226;2023-05-03T07:37:05;101677.25;;;16.10;100.00
21644;BME280;10983;51.982;9.226;2023-05-03T07:39:33;101671.88;;;15.45;100.00
21644;BME280;10983;51.982;9.226;2023-05-03T07:42:00;101669.06;;;15.58;100.00
21644;BME280;10983;51.982;9.226;2023-05-03T07:44:29;101669.19;;;15.27;100.00
21644;BME280;10983;51.982;9.226;2023-05-03T07:46:57;101669.22;;;15.63;100.00
21644;BME280;10983;51.982;9.226;2023-05-03T07:49:25;101668.09;;;15.99;100.00
21644;BME280;10983;51.982;9.226;2023-05-03T07:51:55;101671.94;;;15.92;100.00
21644;BME280;10983;51.982;9.226;2023-05-03T07:54:22;101673.47;;;15.99;100.00
21644;BME280;10983;51.982;9.226;2023-05-03T07:56:50;101671.00;;;15.51;100.00
21644;BME280;10983;51.982;9.226;2023-05-03T07:59:20;101664.56;;;15.70;100.00
21644;BME280;10983;51.982;9.226;2023-05-03T08:01:49;101667.09;;;15.65;100.00
21644;BME280;10983;51.982;9.226;2023-05-03T08:04:16;101660.38;;;15.91;100.00
21644;BME280;10983;51.982;9.226;2023-05-03T08:06:44;101667.13;;;15.47;100.00
21644;BME280;10983;51.982;9.226;2023-05-03T08:09:12;101667.44;;;16.04;100.00
21644;BME280;10983;51.982;9.226;2023-05-03T08:11:40;101662.25;;;16.20;100.00
21644;BME280;10983;51.982;9.226;2023-05-03T08:14:09;101660.84;;;16.47;100.00
21644;BME280;10983;51.982;9.226;2023-05-03T08:16:37;101673.63;;;14.91;100.00
21644;BME280;10983;51.982;9.226;2023-05-03T08:19:05;101671.66;;;15.04;100.00
21644;BME280;10983;51.982;9.226;2023-05-03T08:21:33;101668.00;;;15.41;100.00
21644;BME280;10983;51.982;9.226;2023-05-03T08:24:00;101663.69;;;15.58;100.00
21644;BME280;10983;51.982;9.226;2023-05-03T08:26:31;101675.56;;;15.97;100.00
21644;BME280;10983;51.982;9.226;2023-05-03T08:28:58;101665.22;;;16.30;100.00
21644;BME280;10983;51.982;9.226;2023-05-03T08:31:28;101675.03;;;16.77;100.00
21644;BME280;10983;51.982;9.226;2023-05-03T08:33:56;101674.50;;;16.45;100.00
21644;BME280;10983;51.982;9.226;2023-05-03T08:36:25;101667.97;;;16.53;100.00
21644;BME280;10983;51.982;9.226;2023-05-03T08:38:52;101664.75;;;16.33;100.00
21644;BME280;10983;51.982;9.226;2023-05-03T08:41:21;101662.19;;;16.09;100.00
21644;BME280;10983;51.982;9.226;2023-05-03T08:43:52;101661.75;;;15.65;100.00
21644;BME280;10983;51.982;9.226;2023-05-03T08:46:20;101661.16;;;16.10;100.00
21644;BME280;10983;51.982;9.226;2023-05-03T08:48:49;101662.97;;;15.98;100.00
21644;BME280;10983;51.982;9.226;2023-05-03T08:51:18;101663.00;;;15.80;100.00
21644;BME280;10983;51.982;9.226;2023-05-03T08:53:48;101663.81;;;15.80;100.00
21644;BME280;10983;51.982;9.226;2023-05-03T08:56:23;101654.25;;;16.31;100.00
21644;BME280;10983;51.982;9.226;2023-05-03T08:58:51;101656.75;;;16.44;100.00
21644;BME280;10983;51.982;9.226;2023-05-03T09:01:20;101664.00;;;16.44;100.00
21644;BME280;10983;51.982;9.226;2023-05-03T09:03:48;101660.47;;;16.14;100.00
21644;BME280;10983;51.982;9.226;2023-05-03T09:06:21;101654.28;;;16.14;100.00
21644;BME280;10983;51.982;9.226;2023-05-03T09:08:53;101654.44;;;16.59;100.00
21644;BME280;10983;51.982;9.226;2023-05-03T09:11:22;101652.50;;;17.00;100.00
21644;BME280;10983;51.982;9.226;2023-05-03T09:13:53;101645.03;;;17.02;100.00
21644;BME280;10983;51.982;9.226;2023-05-03T09:16:21;101644.78;;;16.92;100.00
21644;BME280;10983;51.982;9.226;2023-05-03T09:18:55;101637.88;;;16.74;100.00
21644;BME280;10983;51.982;9.226;2023-05-03T09:21:23;101650.81;;;15.95;100.00
21644;BME280;10983;51.982;9.226;2023-05-03T09:23:52;101644.75;;;16.70;100.00
21644;BME280;10983;51.982;9.226;2023-05-03T09:26:30;101635.13;;;16.39;100.00
21644;BME280;10983;51.982;9.226;2023-05-03T09:28:58;101647.25;;;17.28;100.00
21644;BME280;10983;51.982;9.226;2023-05-03T09:31:27;101645.31;;;17.63;100.00
21644;BME280;10983;51.982;9.226;2023-05-03T09:33:56;101658.56;;;16.73;100.00
21644;BME280;10983;51.982;9.226;2023-05-03T09:36:24;101651.84;;;15.05;100.00
21644;BME280;10983;51.982;9.226;2023-05-03T09:38:54;101656.72;;;15.15;100.00
21644;BME280;10983;51.982;9.226;2023-05-03T09:41:29;101656.03;;;15.90;100.00
21644;BME280;10983;51.982;9.226;2023-05-03T09:43:58;101639.19;;;17.28;100.00
21644;BME280;10983;51.982;9.226;2023-05-03T09:46:28;101637.31;;;18.35;100.00
21644;BME280;10983;51.982;9.226;2023-05-03T09:48:57;101642.09;;;18.77;100.00
21644;BME280;10983;51.982;9.226;2023-05-03T09:51:25;101634.88;;;19.15;100.00
21644;BME280;10983;51.982;9.226;2023-05-03T09:53:55;101624.56;;;20.45;100.00
21644;BME280;10983;51.982;9.226;2023-05-03T09:56:23;101630.69;;;19.88;100.00
21644;BME280;10983;51.982;9.226;2023-05-03T09:58:52;101631.75;;;20.34;100.00
21644;BME280;10983;51.982;9.226;2023-05-03T10:01:22;101625.09;;;20.73;100.00
21644;BME280;10983;51.982;9.226;2023-05-03T10:03:51;101633.81;;;20.54;100.00
21644;BME280;10983;51.982;9.226;2023-05-03T10:06:23;101630.59;;;19.19;100.00
21644;BME280;10983;51.982;9.226;2023-05-03T10:08:55;101621.19;;;20.64;100.00
21644;BME280;10983;51.982;9.226;2023-05-03T10:11:27;101626.13;;;19.67;100.00
21644;BME280;10983;51.982;9.226;2023-05-03T10:13:54;101632.03;;;18.12;100.00
21644;BME280;10983;51.982;9.226;2023-05-03T10:16:26;101640.81;;;18.07;100.00
21644;BME280;10983;51.982;9.226;2023-05-03T10:19:04;101623.72;;;19.28;100.00
21644;BME280;10983;51.982;9.226;2023-05-03T10:21:44;101619.38;;;20.12;100.00
21644;BME280;10983;51.982;9.226;2023-05-03T10:24:16;101621.81;;;20.40;100.00
21644;BME280;10983;51.982;9.226;2023-05-03T10:26:44;101609.97;;;20.77;100.00
21644;BME280;10983;51.982;9.226;2023-05-03T10:29:43;101622.28;;;19.42;100.00
21644;BME280;10983;51.982;9.226;2023-05-03T10:32:31;101616.59;;;20.96;100.00
21644;BME280;10983;51.982;9.226;2023-05-03T10:35:00;101619.81;;;21.34;100.00
21644;BME280;10983;51.982;9.226;2023-05-03T10:37:31;101614.31;;;20.83;100.00
21644;BME280;10983;51.982;9.226;2023-05-03T10:40:09;101587.31;;;22.10;100.00
21644;BME280;10983;51.982;9.226;2023-05-03T10:42:38;101609.88;;;22.70;100.00
21644;BME280;10983;51.982;9.226;2023-05-03T10:45:07;101591.66;;;22.90;100.00
21644;BME280;10983;51.982;9.226;2023-05-03T10:47:37;101593.28;;;23.06;100.00
21644;BME280;10983;51.982;9.226;2023-05-03T10:50:26;101592.16;;;23.85;100.00
21644;BME280;10983;51.982;9.226;2023-05-03T10:52:55;101586.59;;;23.57;100.00
21644;BME280;10983;51.982;9.226;2023-05-03T10:55:24;101584.66;;;23.57;100.00
21644;BME280;10983;51.982;9.226;2023-05-03T10:57:54;101592.50;;;22.61;100.00
21644;BME280;10983;51.982;9.226;2023-05-03T11:00:28;101583.47;;;23.20;100.00
21644;BME280;10983;51.982;9.226;2023-05-03T11:03:10;101584.94;;;21.47;100.00
21644;BME280;10983;51.982;9.226;2023-05-03T11:05:39;101577.84;;;22.77;100.00
21644;BME280;10983;51.982;9.226;2023-05-03T11:08:11;101575.31;;;23.25;100.00
21644;BME280;10983;51.982;9.226;2023-05-03T11:10:44;101577.81;;;23.79;100.00
21644;BME280;10983;51.982;9.226;2023-05-03T11:13:12;101571.00;;;24.82;100.00
21644;BME280;10983;51.982;9.226;2023-05-03T11:15:40;101564.03;;;24.42;100.00
21644;BME280;10983;51.982;9.226;2023-05-03T11:18:09;101564.16;;;24.61;100.00
21644;BME280;10983;51.982;9.226;2023-05-03T11:20:37;101570.75;;;23.73;100.00
21644;BME280;10983;51.982;9.226;2023-05-03T11:23:05;101573.16;;;23.22;100.00
21644;BME280;10983;51.982;9.226;2023-05-03T11:25:34;101584.59;;;22.84;100.00
21644;BME280;10983;51.982;9.226;2023-05-03T11:28:04;101579.25;;;23.57;100.00
21644;BME280;10983;51.982;9.226;2023-05-03T11:30:33;101576.34;;;23.92;100.00
21644;BME280;10983;51.982;9.226;2023-05-03T11:33:01;101570.94;;;24.30;100.00
21644;BME280;10983;51.982;9.226;2023-05-03T11:35:29;101566.25;;;24.35;100.00
21644;BME280;10983;51.982;9.226;2023-05-03T11:37:57;101562.91;;;24.10;100.00
21644;BME280;10983;51.982;9.226;2023-05-03T11:40:25;101555.00;;;24.47;100.00
21644;BME280;10983;51.982;9.226;2023-05-03T11:42:54;101564.03;;;24.42;100.00
21644;BME280;10983;51.982;9.226;2023-05-03T11:45:25;101550.38;;;24.52;100.00
21644;BME280;10983;51.982;9.226;2023-05-03T11:47:53;101548.28;;;24.39;100.00
21644;BME280;10983;51.982;9.226;2023-05-03T11:50:46;101544.53;;;25.15;100.00
21644;BME280;10983;51.982;9.226;2023-05-03T11:53:17;101539.75;;;25.67;100.00
21644;BME280;10983;51.982;9.226;2023-05-03T11:55:46;101536.41;;;25.75;100.00
21644;BME280;10983;51.982;9.226;2023-05-03T11:58:14;101535.03;;;24.28;100.00
21644;BME280;10983;51.982;9.226;2023-05-03T12:00:45;101535.97;;;24.75;100.00
21644;BME280;10983;51.982;9.226;2023-05-03T12:03:16;101537.94;;;24.41;100.00
21644;BME280;10983;51.982;9.226;2023-05-03T12:05:45;101539.34;;;22.65;100.00
21644;BME280;10983;51.982;9.226;2023-05-03T12:08:14;101538.06;;;23.88;100.00
21644;BME280;10983;51.982;9.226;2023-05-03T12:10:47;101534.53;;;25.71;100.00
21644;BME280;10983;51.982;9.226;2023-05-03T12:13:26;101530.81;;;25.44;100.00
21644;BME280;10983;51.982;9.226;2023-05-03T12:15:57;101515.31;;;25.99;100.00
21644;BME280;10983;51.982;9.226;2023-05-03T12:18:48;101521.09;;;24.39;100.00
21644;BME280;10983;51.982;9.226;2023-05-03T12:21:17;101522.72;;;24.07;100.00
21644;BME280;10983;51.982;9.226;2023-05-03T12:23:48;101514.13;;;24.80;100.00
21644;BME280;10983;51.982;9.226;2023-05-03T12:26:21;101512.44;;;25.54;100.00
21644;BME280;10983;51.982;9.226;2023-05-03T12:28:51;101507.50;;;27.98;100.00
21644;BME280;10983;51.982;9.226;2023-05-03T12:31:23;101490.09;;;28.68;100.00
21644;BME280;10983;51.982;9.226;2023-05-03T12:33:54;101489.88;;;29.34;100.00
21644;BME280;10983;51.982;9.226;2023-05-03T12:36:41;101497.50;;;28.98;98.65
21644;BME280;10983;51.982;9.226;2023-05-03T12:39:09;101501.97;;;28.12;100.00
21644;BME280;10983;51.982;9.226;2023-05-03T12:41:41;101507.72;;;28.45;100.00
21644;BME280;10983;51.982;9.226;2023-05-03T12:44:12;101497.84;;;29.05;99.12
21644;BME280;10983;51.982;9.226;2023-05-03T12:46:43;101501.53;;;29.73;98.15
21644;BME280;10983;51.982;9.226;2023-05-03T12:49:11;101477.97;;;31.34;94.47
21644;BME280;10983;51.982;9.226;2023-05-03T12:51:41;101482.47;;;29.59;93.29
21644;BME280;10983;51.982;9.226;2023-05-03T12:54:28;101477.09;;;30.47;95.49
21644;BME280;10983;51.982;9.226;2023-05-03T12:56:59;101466.06;;;31.01;91.37
21644;BME280;10983;51.982;9.226;2023-05-03T12:59:34;101465.03;;;32.28;90.23